Hugo Peralta

Chefscout - Guarani
3 Dez 2028
Sonntag
Verarbeitung

Persönlichkeit

Anpassungsfähigkeit (14) Ehrgeiz (14) Kontroverse (16) Loyalität (17) Druck (14) Professionalität (17) Fairness (10) Temperament (7)

Profil

Trainerstil Demokratisch
Lizenz Nationale B
Entschlossenheit 7
Menschenführung 11
Motivation 7
Disziplin 7
Arbeitszufriedenheit
100%
Ermüdung
0%
Rolle Chefscout
Gehalt 85.2K p/W
Vertrag 14.03.2029

Leistung

Verhalten Gut
Trainingseffektivität
36%
Spielerentwicklung
40%
Verletzungsprävention
30%
Taktische Umsetzung
20%

Letzte Ereignisse

Spieler begutachtet jetzt
Nahm an einer Scouting-Besprechung teil jetzt
Spieler begutachtet jetzt
Nahm an einer Scouting-Besprechung teil 7T her
Spieler begutachtet 7T her
Spieler begutachtet 7T her
Spieler begutachtet 7T her
Spieler begutachtet 7T her

Aktuell beobachtet

373
Spieler Verein Status Fähigkeit Vertrauen Beobachtet Zuletzt beobachtet Letzte Stimme
Sebastian Rodriguez Houston Dynamo Aktiv 120 / 118 40% 11 30.11.2028 -
Axel Tape Bayer Leverkusen Aktiv 140 / 156 40% 2 30.11.2028 -
Diego Cheuquepal Racing Aktiv 103 / 115 40% 2 30.11.2028 -
Ayoub Akabou Ceuta Aktiv 105 / 123 40% 6 29.11.2028 -
Robert Cook Accrington Stanley Aktiv 115 / 119 40% 2 29.11.2028 -
Máximo Gómez Vélez Aktiv 91 / 106 40% 1 29.11.2028 -
Saúl Durán Gornik Zabrze Aktiv 100 / 97 40% 3 28.11.2028 -
Jack Porter Port Vale Aktiv 121 / 126 40% 4 28.11.2028 -
Joaquín Fernández River Plate Aktiv 91 / 89 40% 1 28.11.2028 -
Joel Ezra Enyimba Aktiv 96 / 109 40% 8 27.11.2028 -
Mohammed Habib Sarwari Kariobangi Sharks Aktiv 75 / 76 40% 2 27.11.2028 -
Davinchi Getafe Aktiv 129 / 117 40% 3 27.11.2028 -
Trey Nyoni Rotherham United Aktiv 148 / 152 40% 4 25.11.2028 -
Aaron Branca Artigas Aktiv 79 / 87 40% 5 25.11.2028 -
Luis Otávio Orlando City Aktiv 116 / 132 40% 12 24.11.2028 -
Yury Oyarzo Racing Aktiv 96 / 102 40% 3 24.11.2028 -
Santino Baldassarri Orenburg Aktiv 84 / 110 40% 1 24.11.2028 -
Ivan Borges Defensores Aktiv 84 / 98 40% 3 23.11.2028 -
Mauro Matorras Central Norte Aktiv 93 / 95 40% 7 23.11.2028 -
Giovanni Leoni Lincoln City Aktiv 150 / 142 40% 9 22.11.2028 -
Mateo Faure BATE Aktiv 90 / 97 40% 6 22.11.2028 -
Anderson Acevedo Bogota Aktiv 88 / 90 40% 5 22.11.2028 -
Felipe Pujol Vélez Aktiv 109 / 115 40% 4 20.11.2028 -
Daniel Banjaqui Benfica Aktiv 127 / 137 40% 4 19.11.2028 -
Gideon Manaseh Ikorodu City Aktiv 98 / 84 40% 7 19.11.2028 -
Máximo Magnoli Ferro Carril Oeste Aktiv 95 / 96 40% 7 19.11.2028 -
Aytor Herrera Mineros de Guayana Aktiv 88 / 95 40% 6 18.11.2028 -
Matías Satas Grimsby Town Aktiv 108 / 107 40% 2 18.11.2028 -
Juan Manuel Centurión Independiente Aktiv 96 / 112 40% 5 17.11.2028 -
Fabián Cristaldo Defensor Sporting Aktiv 95 / 99 40% 2 17.11.2028 -
Martín Díaz Lanús Aktiv 95 / 109 40% 2 17.11.2028 -
José Quevedo Tigres Aktiv 86 / 99 40% 2 16.11.2028 -
Francisco Machis Llaneros Aktiv 87 / 93 40% 2 14.11.2028 -
Luis Maturana Alianza Petrolera Aktiv 97 / 103 40% 2 14.11.2028 -
Máximo Munarriz San Telmo Aktiv 101 / 106 40% 7 13.11.2028 -
Óscar Hinojosa Metropolitanos Aktiv 84 / 81 40% 5 13.11.2028 -
Andres Casseres Llaneros Aktiv 73 / 76 40% 2 12.11.2028 -
Dylan Moody Cheltenham Town Aktiv 123 / 117 40% 5 11.11.2028 -
Buba Sangaré Elche Aktiv 140 / 150 40% 7 11.11.2028 -
Paulo da Costa Penarol Aktiv 99 / 102 40% 2 11.11.2028 -
Mateo Elisseche Maipú Aktiv 72 / 74 40% 5 10.11.2028 -
Felipe Varela Trujillanos Aktiv 92 / 100 40% 4 08.11.2028 -
Tyler Fletcher Rotherham United Aktiv 116 / 137 40% 3 08.11.2028 -
Germán Barbas Racing Santander Aktiv 120 / 129 40% 2 07.11.2028 -
Jorge Salinas Racing Santander Aktiv 135 / 132 40% 4 06.11.2028 -
Benito Paklayan Alvarado Aktiv 89 / 97 40% 1 06.11.2028 -
Sergio Martínez Real Madrid Aktiv 122 / 134 40% 1 05.11.2028 -
Roberto Medina La Equidad Aktiv 97 / 110 40% 8 04.11.2028 -
Hian Rincón Once Caldas Aktiv 95 / 101 40% 3 04.11.2028 -
Manuel Pereyra Tigre Aktiv 100 / 102 40% 4 02.11.2028 -
Nicholas Michalski Northampton Town Aktiv 114 / 128 40% 3 02.11.2028 -
Tobías Andrada River Plate Aktiv 118 / 128 40% 3 29.10.2028 -
Matias Siltanen Malmo FF Aktiv 127 / 147 40% 2 28.10.2028 -
Alejandro Tapia Central Norte Aktiv 87 / 92 40% 2 27.10.2028 -
Santiago Suárez Queretaro Aktiv 89 / 89 40% 2 27.10.2028 -
Ulíses López Barracas Central Aktiv 98 / 111 40% 5 26.10.2028 -
Luigi Ortiz Deportivo Cali Aktiv 90 / 104 40% 1 26.10.2028 -
Tomás Báez Boca Juniors Aktiv 94 / 109 40% 1 26.10.2028 -
Damián Constanzo River Plate Aktiv 98 / 103 40% 4 24.10.2028 -
Peyton Miller New England Revolution Aktiv 115 / 126 40% 2 24.10.2028 -
Agustín Martínez Cádiz Aktiv 103 / 108 40% 5 22.10.2028 -
Santiago Espíndola River Plate Aktiv 110 / 122 40% 1 22.10.2028 -
Sebastián Alarcón Deportivo Cali Aktiv 94 / 94 40% 1 22.10.2028 -
Ramiro Pueblas Argentinos Juniors Aktiv 93 / 93 40% 3 20.10.2028 -
Tiago Rodríguez Central Norte Aktiv 75 / 85 40% 6 20.10.2028 -
Benicio Romero Inter Aktiv 96 / 121 40% 1 20.10.2028 -
Enzo Romero Defensa y Justicia Aktiv 92 / 100 40% 1 20.10.2028 -
Tiago Gordillo San Miguel Aktiv 87 / 95 40% 6 18.10.2028 -
Agustín Reynoso Boca Juniors Aktiv 93 / 93 40% 2 16.10.2028 -
Francisco Acosta San Martín SJ Aktiv 95 / 110 40% 1 16.10.2028 -
Sam Proctor Salford City Aktiv 129 / 116 40% 4 14.10.2028 -
Jan Cedilnik Chikhura Aktiv 85 / 73 40% 4 12.10.2028 -
Alejandro Almaraz NK Celje Aktiv 120 / 135 40% 1 10.10.2028 -
Estanislao López Colón Aktiv 93 / 100 40% 4 07.10.2028 -
Carlos Nemocón Santa Fe Aktiv 97 / 103 40% 3 06.10.2028 -
Joel Abregu Temperley Aktiv 92 / 102 40% 1 06.10.2028 -
Lautaro Dufur Juventud Aktiv 101 / 115 40% 5 03.10.2028 -
Galo Avendaño Aldosivi Aktiv 97 / 95 40% 1 27.09.2028 -
Tobías Ramírez River Plate Aktiv 128 / 132 40% 5 25.09.2028 -
Jack Wint Sibenik Aktiv 109 / 104 40% 6 24.09.2028 -
Lisandro Musso Central Córdoba SdE Aktiv 98 / 104 40% 2 24.09.2028 -
Vladislav Drozd Isloch Aktiv 78 / 93 40% 1 24.09.2028 -
Gerardo Díaz San Martín SJ Aktiv 106 / 105 40% 5 22.09.2028 -
Álvaro Busso Vélez Aktiv 116 / 127 40% 3 22.09.2028 -
Mateo Caballero Defensor Sporting Aktiv 102 / 104 40% 3 21.09.2028 -
Hosea Michael Remo Stars Aktiv 93 / 77 40% 3 14.09.2028 -
Felipe Pontoni Talleres Aktiv 99 / 112 40% 3 13.09.2028 -
Thiago Sabella Banfield Aktiv 105 / 106 40% 4 13.09.2028 -
Felipe Obradovich Ferro Carril Oeste Aktiv 110 / 112 40% 1 10.09.2028 -
Harrison Armstrong Ipswich Town Aktiv 138 / 134 40% 1 10.09.2028 -
Alejandro Gutiérrez Mineros de Guayana Aktiv 94 / 94 40% 1 06.09.2028 -
Darwin Pérez Metropolitanos Aktiv 89 / 84 40% 4 02.09.2028 -
Thijs Kraaijeveld USM Alger Aktiv 123 / 129 40% 2 01.09.2028 -
Kwesi Sorotu Badori Berekum Chelsea Aktiv 98 / 120 40% 2 01.09.2028 -
Lucas Camejo River Plate Aktiv 85 / 95 40% 2 26.08.2028 -
Jean Carlos Meneses Universitario Popayan Aktiv 78 / 76 40% 1 26.08.2028 -
Kamaldeen Atiemo Wa All Stars Aktiv 107 / 118 40% 3 25.08.2028 -
Ramiro Buratti River Plate Aktiv 99 / 102 40% 2 21.08.2028 -
Gabriel Maureira Colo-Colo Aktiv 93 / 97 40% 1 21.08.2028 -
Juan David Lázaro Patriotas Aktiv 97 / 109 40% 1 21.08.2028 -
Simone Suppa Virtus Verona Aktiv 90 / 94 40% 2 19.08.2028 -
Nicolò Moranduzzo Renate Aktiv 93 / 104 40% 2 17.08.2028 -
Diego Vargas Universidad de Concepcion Aktiv 94 / 101 40% 1 17.08.2028 -
Ahmed Zaki Masr El Makasa Aktiv 85 / 70 40% 2 15.08.2028 -
Matías Magdaleno Estudiantes Aktiv 108 / 104 40% 2 15.08.2028 -
Augusto Bando Ascoli Aktiv 111 / 114 40% 2 11.08.2028 -
Federico Matarán Giana Erminio Aktiv 104 / 109 40% 1 10.08.2028 -
Tomás Silva Lanús Aktiv 97 / 96 40% 3 09.08.2028 -
Riquelme Thompson-Jones Accrington Stanley Aktiv 113 / 130 40% 4 09.08.2028 -
Kiani Inge Groningen Aktiv 115 / 109 40% 2 07.08.2028 -
Diego Bolaños Veracruz Aktiv 93 / 99 40% 1 01.06.2028 -
Olivier Leroux Mouscron Aktiv 107 / 117 40% 1 31.05.2028 -
Jan Bürger Northampton Town Aktiv 120 / 126 40% 7 30.05.2028 -
Martim Cunha Porto Aktiv 110 / 97 40% 2 30.05.2028 -
Gael Moreno Morelia Aktiv 73 / 87 40% 1 30.05.2028 -
Tobiáš Pališčák Zlin Aktiv 100 / 91 40% 2 28.05.2028 -
Ignacio Roldán Lanús Aktiv 100 / 106 40% 1 27.05.2028 -
Fernando Bravo Almería Aktiv 109 / 108 40% 1 27.05.2028 -
Lautaro Vera Platense Aktiv 101 / 98 40% 1 27.05.2028 -
Jorman Mendoza Envigado Aktiv 88 / 86 40% 3 26.05.2028 -
Juan Kuverling Unión de Santa Fe Aktiv 90 / 85 40% 1 26.05.2028 -
Fernando Soto Union Espanola Aktiv 88 / 94 40% 1 26.05.2028 -
Augusto Subirats NK Krka Aktiv 92 / 95 40% 2 24.05.2028 -
Santiago Galli Belgrano Aktiv 95 / 109 40% 1 24.05.2028 -
Walter Molina Defensa y Justicia Aktiv 92 / 92 40% 3 23.05.2028 -
Ayden Heaven Portsmouth Aktiv 149 / 166 40% 1 21.05.2028 -
Celías Ingenthron Platense Aktiv 117 / 117 40% 4 20.05.2028 -
Josh Nichols Oldham Athletic Aktiv 125 / 131 40% 2 19.05.2028 -
Bernardo Lima Porto Aktiv 105 / 129 40% 1 18.05.2028 -
Abubakar Adams Aduana Stars Aktiv 89 / 89 40% 1 17.05.2028 -
Nazareno Roselli Defensa y Justicia Aktiv 113 / 126 40% 2 16.05.2028 -
Hervin Goyes Deportivo Pasto Aktiv 109 / 105 40% 2 16.05.2028 -
Agustín Nogueira Barracas Central Aktiv 99 / 112 40% 3 14.05.2028 -
Martín D'Aurizio Huracán Aktiv 100 / 109 40% 4 10.05.2028 -
Lamine Bèye Portimonense Aktiv 110 / 104 40% 1 09.05.2028 -
Thiago Parga Huracán Aktiv 100 / 104 40% 2 06.05.2028 -
David Fernández Unión de Santa Fe Aktiv 93 / 92 40% 1 06.05.2028 -
Maximiliano Campos Zamora Aktiv 94 / 91 40% 1 02.05.2028 -
Ruben Ramos LA Galaxy Aktiv 96 / 98 40% 1 30.11.2027 -
Dylan Cabral Arsenal Aktiv 101 / 108 40% 1 30.11.2027 -
Victor Hernandez Santa Fe Aktiv 124 / 130 40% 1 30.11.2027 -
Jean Zevallos Sport Huancayo Aktiv 85 / 91 40% 1 29.11.2027 -
Juan Esteban Gómez Atletico Nacional Aktiv 82 / 100 40% 2 25.11.2027 -
Santiago Mondragón Deportivo Cali Aktiv 90 / 96 40% 1 25.11.2027 -
Tiziano Delias Sarmiento Aktiv 89 / 94 40% 7 21.11.2027 -
Alfonso Álvarez Ferro Carril Oeste Aktiv 98 / 95 40% 3 21.11.2027 -
Duván Córdoba Jaguares Aktiv 86 / 98 40% 1 19.11.2027 -
Juan Ignacio Blanco Defensor Sporting Aktiv 88 / 91 40% 1 17.11.2027 -
Alejandro Rojo Deportivo Cali Aktiv 84 / 95 40% 2 12.11.2027 -
Jeremías Robledo Acosta Newell's Old Boys Aktiv 93 / 103 40% 3 12.11.2027 -
Tobías Pantoja Central Norte Aktiv 98 / 98 40% 1 09.11.2027 -
Enzo Gramajo Vélez Aktiv 90 / 94 40% 1 05.11.2027 -
Martín Almeida Montevideo City Torque Aktiv 96 / 107 40% 3 03.11.2027 -
Joel Abraham Boston River Aktiv 93 / 91 40% 1 03.11.2027 -
Tomás Bais Santa Fe Aktiv 88 / 98 40% 1 01.11.2027 -
Nikita Dovnar Niva Aktiv 87 / 86 40% 1 01.11.2027 -
Emiliano Zacca Deportivo Riestra Aktiv 93 / 96 40% 3 30.10.2027 -
Nicolás Ruiz Tigres Aktiv 81 / 84 40% 1 30.10.2027 -
Agustín Albrini Independiente Rivadavia Aktiv 96 / 101 40% 3 29.10.2027 -
Valentín Motta Independiente Aktiv 88 / 88 40% 2 28.10.2027 -
Joaquín Giudice Platense Aktiv 95 / 109 40% 3 27.10.2027 -
Lautaro Catanzano Huracán Aktiv 84 / 85 40% 1 27.10.2027 -
Emanuel Bonda Argentinos Juniors Aktiv 84 / 90 40% 1 26.10.2027 -
Alan Vázquez Metropolitanos Aktiv 83 / 96 40% 1 24.10.2027 -
Hernán Sanabria Barracas Central Aktiv 91 / 84 40% 2 23.10.2027 -
Federico Bonilla River Plate Aktiv 92 / 101 40% 5 22.10.2027 -
Íker Blanco Deportivo Cali Aktiv 97 / 107 40% 1 22.10.2027 -
Yurdy Ramos Real Santander Aktiv 83 / 84 40% 1 21.10.2027 -
Dylan Martínez River Plate Aktiv 92 / 107 40% 1 21.10.2027 -
Thiago Nahuel Independiente Aktiv 90 / 89 40% 3 20.10.2027 -
Ignacio Cardozo Vélez Aktiv 87 / 94 40% 2 19.10.2027 -
Felipe Igón Racing Club Aktiv 102 / 110 40% 2 19.10.2027 -
Patricio Flores Defensa y Justicia Aktiv 84 / 102 40% 3 11.10.2027 -
Santino Bacciadone Banfield Aktiv 91 / 100 40% 2 08.10.2027 -
Lucas Wolfert Racing Club Aktiv 90 / 110 40% 1 05.10.2027 -
Juan Álvarez Argentinos Juniors Aktiv 81 / 99 40% 2 03.10.2027 -
Máximo Suazo Central Norte Aktiv 80 / 74 40% 2 30.09.2027 -
Ikenna Nkwazema FC Diarra Aktiv 83 / 99 40% 3 26.09.2027 -
Renato Ardissono San Lorenzo Aktiv 90 / 98 40% 2 26.09.2027 -
Ignacio Coscio Huracán Aktiv 88 / 108 40% 1 26.09.2027 -
Nicolás Filippa Sarmiento Aktiv 79 / 96 40% 1 25.09.2027 -
Santiago Videla Iquique Aktiv 84 / 97 40% 2 23.09.2027 -
Máximo Cabrera Gimnasia La Plata Aktiv 86 / 91 40% 1 21.09.2027 -
Jhovani Ocampos Quilmes Aktiv 86 / 82 40% 1 19.09.2027 -
Matías Zorzoli Newell's Old Boys Aktiv 98 / 99 40% 2 18.09.2027 -
Lisandro Tejada San Martín SJ Aktiv 89 / 91 40% 4 17.09.2027 -
Joaquín Ravasio Talleres Aktiv 83 / 83 40% 1 17.09.2027 -
Santiago Correa Godoy Cruz Aktiv 83 / 98 40% 1 14.09.2027 -
Alexei Rojas Fedorushchenko Barrow AFC Aktiv 119 / 133 40% 3 12.09.2027 -
Jhusstyn Rentería Atletico Nacional Aktiv 93 / 105 40% 1 11.09.2027 -
Iván Díaz Millonarios Aktiv 82 / 87 40% 1 09.09.2027 -
Sabino González Sarmiento Aktiv 90 / 105 40% 1 09.09.2027 -
Santiago Ruiz Tigre Aktiv 85 / 84 40% 1 09.09.2027 -
Rodrigo Russo Vélez Aktiv 86 / 96 40% 1 06.09.2027 -
José Alburquenque Universidad de Chile Aktiv 84 / 95 40% 1 06.09.2027 -
Kevin Maidana Vélez Aktiv 77 / 82 40% 1 03.09.2027 -
Ioshua Sánchez Barracas Central Aktiv 85 / 93 40% 1 30.08.2027 -
Luis Mateus Atletico Bucaramanga Aktiv 88 / 91 40% 1 29.08.2027 -
Danilo Monza Sarmiento Aktiv 86 / 102 40% 1 20.08.2027 -
Yeifer Herrera Leones Aktiv 83 / 79 40% 1 16.08.2027 -
Jesús Mejía Real Santander Aktiv 83 / 93 40% 1 12.08.2027 -
Giovanni Stellato Guidonia Montecelio Aktiv 97 / 105 40% 2 07.08.2027 -
Leonardo Sosa Rosario Central Aktiv 89 / 100 40% 2 07.08.2027 -
Tomás Chetelain Estudiantes Aktiv 94 / 96 40% 1 06.08.2027 -
Santiago Direnna Miramar Misiones Aktiv 74 / 85 40% 1 05.08.2027 -
Sergey Gaiduk Salyut Aktiv 88 / 66 40% 4 23.06.2027 -
Gosiame Ngobeni New Edubiase United Aktiv 74 / 88 40% 2 23.06.2027 -
Jeremy van Haalen NEC Aktiv 84 / 80 40% 2 31.05.2027 -
Lwanda Mbanjwa Platinum Stars Aktiv 89 / 86 40% 3 30.05.2027 -
Chineme Chinonso Ikorodu City Aktiv 102 / 101 40% 2 30.05.2027 -
Chimobi Igwilo Rangers International Aktiv 81 / 93 40% 1 30.05.2027 -
Michael Noumon Heart of Lions Aktiv 77 / 87 40% 3 29.05.2027 -
Maren Kefas Plateau United Aktiv 89 / 85 40% 2 29.05.2027 -
Godbless Ayeke AS Bakaridjan Aktiv 75 / 60 40% 2 28.05.2027 -
Leo Castledine Middlesbrough Aktiv 136 / 127 40% 3 27.05.2027 -
Rafael Moreno Atletico Venezuela Aktiv 107 / 103 40% 1 27.05.2027 -
Luke Baartman Ajax Cape Town Aktiv 110 / 100 40% 2 26.05.2027 -
Stanley Amon Bayelsa United Aktiv 84 / 81 40% 1 26.05.2027 -
Lorenzo De Leo Renate Aktiv 104 / 94 40% 4 25.05.2027 -
George Brown Sheffield Wednesday Aktiv 109 / 116 40% 2 24.05.2027 -
Darlvin Yeboah Bechem United Aktiv 94 / 88 40% 2 22.05.2027 -
Matvii Ponomarenko Dynamo Kyiv Aktiv 113 / 111 40% 3 18.05.2027 -
David Fernández O'Higgins Aktiv 106 / 113 40% 4 18.05.2027 -
Ryan Oné Sheffield United Aktiv 108 / 131 40% 3 15.05.2027 -
Naledi Hlongwane Wa All Stars Aktiv 101 / 97 40% 4 13.05.2027 -
Luka Andrade Montevideo City Torque Aktiv 94 / 96 40% 1 13.05.2027 -
Abubakar Garba Nasarawa United Aktiv 98 / 87 40% 2 12.05.2027 -
Dilan Neves Benfica Aktiv 76 / 74 40% 1 11.05.2027 -
Borna Knezović Casarano Aktiv 109 / 99 40% 2 10.05.2027 -
Serge Daura PWD Bamenda Aktiv 97 / 118 40% 2 08.05.2027 -
Fletcher Holman Swindon Town Aktiv 92 / 95 40% 4 07.05.2027 -
Miloš Jovičić Zabbar St. Patrick Aktiv 85 / 81 40% 2 06.05.2027 -
Víctor Guzmán Sporting CP Aktiv 88 / 82 40% 1 30.04.2027 -
Máximo Seggio Crawley Town Aktiv 80 / 106 40% 2 28.04.2027 -
Jonás Luna Wanderers Aktiv 111 / 115 40% 1 28.04.2027 -
Giuseppe Coppola Picerno Aktiv 96 / 90 40% 1 27.04.2027 -
Dani Ángel Sampdoria Aktiv 100 / 86 40% 1 25.04.2027 -
Ben Ahmed Kohili Paradou Aktiv 96 / 118 40% 5 19.04.2027 -
Roberto Iliev Slavia Sofia Aktiv 103 / 118 40% 1 15.04.2027 -
Joseph George Aigle Royal de Moungo Aktiv 88 / 79 40% 2 13.04.2027 -
Nazif Inoussa Benfica Aktiv 81 / 64 40% 1 11.04.2027 -
Teboho Zwane Ajax Cape Town Aktiv 98 / 102 40% 1 08.04.2027 -
Bariş Kalaycı Fatih Karagumruk Aktiv 110 / 119 40% 1 08.04.2027 -
Mikel Gogorza Brondby Aktiv 128 / 109 40% 1 07.04.2027 -
Bazoumana Touré Newcastle United Aktiv 131 / 135 40% 1 11.03.2027 -
Othmane Maamma Watford Aktiv 124 / 139 40% 1 11.03.2027 -
Romelle Donovan Brentford Aktiv 119 / 135 40% 2 10.03.2027 -
Nestory Irankunda Watford Aktiv 119 / 143 40% 1 10.03.2027 -
Chari Giwa US Bougouni Aktiv 84 / 66 40% 1 07.03.2027 -
Nana Nuhu WAFA Aktiv 87 / 101 40% 1 05.03.2027 -
James Dornelly Peterborough United Aktiv 98 / 112 40% 1 04.03.2027 -
Robert FC Copenhagen Aktiv 123 / 149 40% 2 02.03.2027 -
Daniel Awuni Aduana Stars Aktiv 92 / 89 40% 1 02.03.2027 -
Veljko Radosavljević Cukaricki Aktiv 105 / 124 40% 1 02.03.2027 -
Martin Gjorgievski Zbrojovka Brno Aktiv 106 / 101 40% 1 28.12.2026 -
Louis Leroux FC Nantes Aktiv 117 / 137 40% 1 21.12.2026 -
Justo Giani Umraniyespor Aktiv 112 / 102 40% 2 27.11.2026 -
Juan Infante Atlético Tucumán Aktiv 124 / 118 40% 1 27.11.2026 -
Federico Martínez MFK Ruzomberok Aktiv 117 / 105 40% 4 26.11.2026 -
Marcelo Allende Mamelodi Sundowns Aktiv 142 / 135 40% 2 25.11.2026 -
Bradley Zwane SuperSport United Aktiv 116 / 102 40% 1 23.11.2026 -
Ramiro Ruiz Rodríguez Atlético Tucumán Aktiv 115 / 130 40% 2 22.11.2026 -
Tyrese Campbell Sheffield United Aktiv 135 / 115 40% 1 22.11.2026 -
Finn Azaz Southampton Aktiv 137 / 120 40% 1 21.11.2026 -
Santiago Segovia Rosario Central Aktiv 101 / 117 40% 2 19.11.2026 -
Edu Expósito Espanyol Aktiv 135 / 137 40% 1 19.11.2026 -
Agustín Medina Lanús Aktiv 122 / 114 40% 1 18.11.2026 -
Pedro Porro Tottenham Aktiv 157 / 132 40% 1 15.11.2026 -
Scott Twine Bristol City Aktiv 122 / 131 40% 1 14.11.2026 -
Oswin Appollis Orlando Pirates Aktiv 115 / 127 40% 3 13.11.2026 -
Ryoya Morishita Blackburn Rovers Aktiv 118 / 109 40% 1 13.11.2026 -
Kenny Tete Fulham Aktiv 140 / 155 40% 1 13.11.2026 -
Reda Khadra Qarabag Aktiv 137 / 121 40% 2 12.11.2026 -
Manu Morlanes Mallorca Aktiv 140 / 135 40% 3 12.11.2026 -
Ferland Mendy Real Madrid Aktiv 154 / 153 40% 3 11.11.2026 -
Dejan Zukić Vojvodina Aktiv 126 / 132 40% 1 08.11.2026 -
Lucas Souto Defensa y Justicia Aktiv 121 / 114 40% 3 06.11.2026 -
Franco Cristaldo Talleres Aktiv 125 / 118 40% 5 05.11.2026 -
Gabriel Monjes Hamrun Spartans Aktiv 83 / 108 40% 2 04.11.2026 -
Tiago Pucciarelli IF Elfsborg Aktiv 106 / 95 40% 2 04.11.2026 -
Morgan Guilavogui Real Salt Lake Aktiv 120 / 127 40% 4 01.11.2026 -
Yhormar Hurtado Lechia Aktiv 115 / 136 40% 1 01.11.2026 -
Bongani Zungu Ajax Cape Town Aktiv 117 / 116 40% 1 31.10.2026 -
Francisco González Metilli Belgrano Aktiv 125 / 124 40% 4 30.10.2026 -
Martín Ojeda Orlando City Aktiv 138 / 123 40% 2 28.10.2026 -
Thomas Carrique Andorra Aktiv 121 / 118 40% 2 28.10.2026 -
Montader Madjed Hammarby Aktiv 114 / 115 40% 1 27.10.2026 -
Brian Orosco Godoy Cruz Aktiv 124 / 117 40% 3 24.10.2026 -
Jens Petter Hauge Bodo/Glimt Aktiv 148 / 124 40% 2 24.10.2026 -
Tyrhys Dolan Espanyol Aktiv 130 / 143 40% 4 23.10.2026 -
Santiago Rodríguez Columbus Crew Aktiv 128 / 114 40% 1 23.10.2026 -
Lander Astiazarán Real Sociedad Aktiv 93 / 105 40% 2 21.10.2026 -
Luciano Inverso Betis Aktiv 108 / 105 40% 1 21.10.2026 -
Jesus Ferreira Seattle Sounders Aktiv 128 / 129 40% 2 20.10.2026 -
Tomás Aranda Boca Juniors Aktiv 109 / 112 40% 1 18.10.2026 -
Iván Angulo Orlando City Aktiv 129 / 134 40% 4 13.10.2026 -
Allan Saint-Maximin Charlotte Football Club Aktiv 141 / 142 40% 3 12.10.2026 -
Joaquín Pereyra Minnesota United FC Aktiv 135 / 120 40% 1 09.10.2026 -
Matías Pellegrini Vélez Aktiv 118 / 119 40% 1 07.10.2026 -
Mariano Bracamonte Deportivo Riestra Aktiv 113 / 115 40% 2 06.10.2026 -
Telasco Segovia Inter Miami CF Aktiv 131 / 136 40% 2 04.10.2026 -
Talles Magno New York City Aktiv 124 / 118 40% 2 30.09.2026 -
Tadeo Allende Inter Miami CF Aktiv 126 / 134 40% 1 28.09.2026 -
Eduard Löwen San Jose Earthquakes Aktiv 133 / 125 40% 1 27.09.2026 -
Amin Boudri Los Angeles Football Club Aktiv 125 / 123 40% 2 24.09.2026 -
Alexis Steimbach Gimnasia La Plata Aktiv 124 / 124 40% 1 24.09.2026 -
Marco Pašalić Orlando City Aktiv 121 / 136 40% 1 23.09.2026 -
Demián Troya Platense Aktiv 94 / 112 40% 2 22.09.2026 -
Joaquín Ruiz Boca Juniors Aktiv 92 / 107 40% 1 22.09.2026 -
Matías Arias Vélez Aktiv 102 / 121 40% 1 22.09.2026 -
Bénie Traoré New York City Aktiv 127 / 134 40% 2 20.09.2026 -
Thiago Acosta River Plate Aktiv 104 / 110 40% 1 20.09.2026 -
Lasse Berg Johnsen Sporting Kansas City Aktiv 128 / 121 40% 1 20.09.2026 -
Gaspar Duarte Rosario Central Aktiv 111 / 119 40% 1 20.09.2026 -
Alexey Miranchuk Atlanta United FC Aktiv 140 / 147 40% 1 17.09.2026 -
Lucas Cornejo Estudiantes Aktiv 105 / 110 40% 2 15.09.2026 -
Joel Medina Independiente Aktiv 103 / 120 40% 2 15.09.2026 -
Juan Manuel Sanabria Real Salt Lake Aktiv 130 / 125 40% 1 15.09.2026 -
Franco Provenzano Deportivo Tachira Aktiv 87 / 83 40% 1 15.09.2026 -
Joao Ortiz Portland Timbers Aktiv 127 / 111 40% 1 13.09.2026 -
Juan Camilo Pérez Carabobo Aktiv 122 / 108 40% 1 12.09.2026 -
André Franco Chicago Fire Aktiv 131 / 134 40% 1 12.09.2026 -
César Inga Universitario Aktiv 126 / 136 40% 1 12.09.2026 -
Gaspar Gentile Alianza Lima Aktiv 108 / 121 40% 1 11.09.2026 -
Obinna Nwobodo FC Cincinnati Aktiv 133 / 126 40% 1 10.09.2026 -
Paolo Reyna Universitario Aktiv 109 / 123 40% 1 10.09.2026 -
Mauricio Cardillo San Lorenzo Aktiv 115 / 114 40% 1 10.09.2026 -
Ryan Gauld Vancouver Whitecaps Aktiv 133 / 124 40% 1 09.09.2026 -
Pedro Silva Torrejón Gimnasia La Plata Aktiv 124 / 120 40% 1 09.09.2026 -
Christian Larotonda Caracas Aktiv 109 / 125 40% 1 08.09.2026 -
Jonathan Bamba Chicago Fire Aktiv 132 / 136 40% 1 08.09.2026 -
Kelvin Yeboah Minnesota United FC Aktiv 125 / 139 40% 1 07.09.2026 -
Joaquín Silva Santiago Wanderers Aktiv 84 / 87 40% 2 06.09.2026 -
Lucas Duré Montevideo City Torque Aktiv 96 / 113 40% 2 06.09.2026 -
Víctor Reyes Deportes Tolima Aktiv 91 / 93 40% 1 06.09.2026 -
Maximo Ingravidi Colón Aktiv 103 / 115 40% 1 04.09.2026 -
Leonel Flores Boca Juniors Aktiv 97 / 115 40% 1 03.09.2026 -
Alejo Fernández Temperley Aktiv 86 / 104 40% 1 02.09.2026 -
Owen Wolff Austin FC Aktiv 114 / 122 40% 1 02.09.2026 -
Tomás Arias Independiente Rivadavia Aktiv 88 / 95 40% 1 31.08.2026 -
Alan Coria Defensa y Justicia Aktiv 103 / 108 40% 1 30.08.2026 -
Agustín Córdoba Independiente Rivadavia Aktiv 100 / 101 40% 1 30.08.2026 -
Luca Regiardo Newell's Old Boys Aktiv 97 / 122 40% 1 29.08.2026 -
Joaquín Pereyra Estudiantes Aktiv 88 / 110 40% 1 29.08.2026 -
Martín García Aldosivi Aktiv 84 / 88 40% 1 28.08.2026 -
Aaron Vera Maipú Aktiv 83 / 99 40% 1 28.08.2026 -
Lucas Varela Defensa y Justicia Aktiv 81 / 83 40% 1 27.08.2026 -
Nicolás Canteros Talleres Aktiv 87 / 76 40% 1 27.08.2026 -
Agustín Obregón River Plate Aktiv 108 / 107 40% 3 25.08.2026 -
Joel Flecha Barracas Central Aktiv 87 / 90 40% 1 25.08.2026 -
Giorgio Costantini River Plate Aktiv 95 / 117 40% 1 25.08.2026 -
Santiago Medina Huracán Aktiv 88 / 104 40% 1 24.08.2026 -
Benjamín Rey Argentinos Juniors Aktiv 95 / 105 40% 1 23.08.2026 -
Lautaro Quiroga Defensa y Justicia Aktiv 100 / 95 40% 1 23.08.2026 -
Santino Rayneli Huracán Aktiv 81 / 92 40% 1 23.08.2026 -
Valentino Massi Sarmiento Aktiv 91 / 113 40% 1 18.08.2026 -
Lucas Silva River Plate Aktiv 90 / 114 40% 1 17.08.2026 -
Tiago Marghetich Quilmes Aktiv 97 / 85 40% 2 15.08.2026 -
Neider Parra Atletico Nacional Aktiv 89 / 95 40% 1 15.08.2026 -
Carlos da Rosa Cerro Aktiv 91 / 91 40% 2 14.08.2026 -
Demian Rea Banfield Aktiv 91 / 105 40% 2 10.08.2026 -
Julián Reyna Independiente Rivadavia Aktiv 84 / 87 40% 1 10.08.2026 -
Ángel Figueroa Caracas Aktiv 91 / 85 40% 1 09.08.2026 -
Álbaro Polo Portuguesa Aktiv 81 / 93 40% 1 07.08.2026 -
Lautaro Duarte Deportivo Riestra Aktiv 87 / 104 40% 1 06.08.2026 -
Alan Díaz Huracán Aktiv 82 / 83 40% 1 06.08.2026 -
Thiago Martínez Defensa y Justicia Aktiv 89 / 107 40% 1 06.08.2026 -
Pedro Dacrema Independiente Rivadavia Aktiv 87 / 105 40% 1 05.08.2026 -
Tadeo Schettino Sarmiento Aktiv 79 / 101 40% 1 03.08.2026 -
Matías Unyicio River Plate Aktiv 79 / 100 40% 1 03.08.2026 -
Peio Canales Athletic Bilbao Aktiv 128 / 132 40% 1 01.08.2026 -
Thiago Mastrolorenzo Independiente Aktiv 91 / 118 40% 1 01.08.2026 -
Dylan Greco Unión de Santa Fe Aktiv 94 / 113 40% 1 01.08.2026 -